Главная страница
METAR-TAF:

METAR-TAF

Аэропорты :

Оушен округ, Нью-Джерси, США

широта: 39-55-39N, долгота: 074-17-33W, высота над уровнем моря: 25 м

Текущие метеонаблюдения

Эта сводка был подготовлена 52 минут назад, в 11:56 UTC
Ветер 3 Узел переменных направлений
Температура 15°C
Влажность 55%
Давление 1026 hPa
Видимость: 16.1 км
ясное небо

METAR: KMJX 161156Z AUTO VRB03KT 10SM CLR 15/06 A3030 RMK AO2 SLP262 T01500056 10150 20011 53011

Время: 08:48 (12:48 UTC)


TAF: отсутствует

Метеонаблюдения и прогнозы для более 4000 аэропортов (сводки METAR и TAF).

Имеющиеся станции представлены на карте желтыми и красными точками.

Чтобы увидеть название станции, наведите на нее мышь.

Затем щелкните, чтобы увидеть метеонаблюдения и метеопрогнозы.

Управление картой: чтобы увеличить масштаб, щелкните зеленые кнопки с черным крестиком; чтобы уменьшить масштаб, щелкните зеленую кнопку с тире; для просмотра соседних карт щелкайте зеленые стрелки.


METAR-TAF: